sensor_id;sensor_type;location;lat;lon;timestamp;pressure;altitude;pressure_sealevel;temperature;humidity
74659;BME280;63186;51.204;6.536;2023-09-19T00:01:45;100450.03;;;14.02;100.00
74659;BME280;63186;51.204;6.536;2023-09-19T00:04:11;100443.53;;;13.98;100.00
74659;BME280;63186;51.204;6.536;2023-09-19T00:06:38;100458.31;;;14.02;100.00
74659;BME280;63186;51.204;6.536;2023-09-19T00:09:03;100455.66;;;14.06;100.00
74659;BME280;63186;51.204;6.536;2023-09-19T00:11:29;100453.59;;;14.03;100.00
74659;BME280;63186;51.204;6.536;2023-09-19T00:13:54;100439.03;;;13.94;100.00
74659;BME280;63186;51.204;6.536;2023-09-19T00:16:20;100453.91;;;14.01;100.00
74659;BME280;63186;51.204;6.536;2023-09-19T00:18:45;100458.19;;;13.99;100.00
74659;BME280;63186;51.204;6.536;2023-09-19T00:21:11;100460.50;;;13.97;100.00
74659;BME280;63186;51.204;6.536;2023-09-19T00:23:37;100460.00;;;13.95;100.00
74659;BME280;63186;51.204;6.536;2023-09-19T00:26:02;100462.78;;;13.95;100.00
74659;BME280;63186;51.204;6.536;2023-09-19T00:28:29;100463.81;;;13.90;100.00
74659;BME280;63186;51.204;6.536;2023-09-19T00:30:57;100471.63;;;13.88;100.00
74659;BME280;63186;51.204;6.536;2023-09-19T00:33:25;100474.06;;;13.90;100.00
74659;BME280;63186;51.204;6.536;2023-09-19T00:35:51;100470.34;;;13.85;100.00
74659;BME280;63186;51.204;6.536;2023-09-19T00:38:18;100476.34;;;13.88;100.00
74659;BME280;63186;51.204;6.536;2023-09-19T00:40:47;100472.97;;;13.82;100.00
74659;BME280;63186;51.204;6.536;2023-09-19T00:43:12;100469.91;;;13.83;100.00
74659;BME280;63186;51.204;6.536;2023-09-19T00:45:42;100479.59;;;13.90;100.00
74659;BME280;63186;51.204;6.536;2023-09-19T00:48:08;100479.59;;;13.90;100.00
74659;BME280;63186;51.204;6.536;2023-09-19T00:50:34;100475.44;;;13.83;100.00
74659;BME280;63186;51.204;6.536;2023-09-19T00:53:01;100474.47;;;13.79;100.00
74659;BME280;63186;51.204;6.536;2023-09-19T00:55:28;100480.34;;;13.78;100.00
74659;BME280;63186;51.204;6.536;2023-09-19T00:57:55;100484.75;;;13.79;100.00
74659;BME280;63186;51.204;6.536;2023-09-19T01:00:21;100470.03;;;13.66;100.00
74659;BME280;63186;51.204;6.536;2023-09-19T01:02:46;100497.84;;;13.70;100.00
74659;BME280;63186;51.204;6.536;2023-09-19T01:05:12;100488.13;;;13.64;100.00
74659;BME280;63186;51.204;6.536;2023-09-19T01:07:38;100493.66;;;13.64;100.00
74659;BME280;63186;51.204;6.536;2023-09-19T01:10:09;100495.13;;;13.61;100.00
74659;BME280;63186;51.204;6.536;2023-09-19T01:12:57;100508.03;;;13.57;100.00
74659;BME280;63186;51.204;6.536;2023-09-19T01:26:30;100511.06;;;13.64;100.00
74659;BME280;63186;51.204;6.536;2023-09-19T01:31:39;100515.09;;;13.67;100.00
74659;BME280;63186;51.204;6.536;2023-09-19T01:34:07;100522.59;;;13.66;100.00
74659;BME280;63186;51.204;6.536;2023-09-19T01:36:36;100529.28;;;13.65;100.00
74659;BME280;63186;51.204;6.536;2023-09-19T01:39:10;100523.47;;;13.58;100.00
74659;BME280;63186;51.204;6.536;2023-09-19T01:44:21;100535.78;;;13.69;100.00
74659;BME280;63186;51.204;6.536;2023-09-19T01:46:47;100532.78;;;13.74;100.00
74659;BME280;63186;51.204;6.536;2023-09-19T01:49:25;100533.13;;;13.73;100.00
74659;BME280;63186;51.204;6.536;2023-09-19T01:52:12;100535.69;;;13.78;100.00
74659;BME280;63186;51.204;6.536;2023-09-19T01:54:52;100537.91;;;13.84;100.00
74659;BME280;63186;51.204;6.536;2023-09-19T01:57:29;100532.22;;;13.81;100.00
74659;BME280;63186;51.204;6.536;2023-09-19T02:00:02;100533.28;;;13.76;100.00
74659;BME280;63186;51.204;6.536;2023-09-19T02:02:39;100539.94;;;13.75;100.00
74659;BME280;63186;51.204;6.536;2023-09-19T02:05:07;100541.75;;;13.71;100.00
74659;BME280;63186;51.204;6.536;2023-09-19T02:07:33;100542.22;;;13.73;100.00
74659;BME280;63186;51.204;6.536;2023-09-19T02:09:58;100541.88;;;13.75;100.00
74659;BME280;63186;51.204;6.536;2023-09-19T02:12:30;100543.84;;;13.74;100.00
74659;BME280;63186;51.204;6.536;2023-09-19T02:14:56;100544.66;;;13.75;100.00
74659;BME280;63186;51.204;6.536;2023-09-19T02:17:22;100547.09;;;13.76;100.00
74659;BME280;63186;51.204;6.536;2023-09-19T02:19:51;100548.38;;;13.79;100.00
74659;BME280;63186;51.204;6.536;2023-09-19T02:22:17;100554.09;;;13.74;100.00
74659;BME280;63186;51.204;6.536;2023-09-19T02:24:42;100557.91;;;13.69;100.00
74659;BME280;63186;51.204;6.536;2023-09-19T02:27:08;100559.72;;;13.65;100.00
74659;BME280;63186;51.204;6.536;2023-09-19T02:29:33;100562.00;;;13.63;100.00
74659;BME280;63186;51.204;6.536;2023-09-19T02:32:01;100558.22;;;13.68;100.00
74659;BME280;63186;51.204;6.536;2023-09-19T02:34:27;100556.13;;;13.65;100.00
74659;BME280;63186;51.204;6.536;2023-09-19T02:36:53;100549.19;;;13.58;100.00
74659;BME280;63186;51.204;6.536;2023-09-19T02:39:20;100561.41;;;13.57;100.00
74659;BME280;63186;51.204;6.536;2023-09-19T02:41:45;100563.19;;;13.53;100.00
74659;BME280;63186;51.204;6.536;2023-09-19T02:44:11;100557.84;;;13.48;100.00
74659;BME280;63186;51.204;6.536;2023-09-19T02:46:37;100565.34;;;13.48;100.00
74659;BME280;63186;51.204;6.536;2023-09-19T02:49:03;100563.06;;;13.50;100.00
74659;BME280;63186;51.204;6.536;2023-09-19T02:51:32;100563.38;;;13.48;100.00
74659;BME280;63186;51.204;6.536;2023-09-19T02:54:01;100563.59;;;13.43;100.00
74659;BME280;63186;51.204;6.536;2023-09-19T02:56:29;100566.84;;;13.45;100.00
74659;BME280;63186;51.204;6.536;2023-09-19T02:58:56;100561.97;;;13.42;100.00
74659;BME280;63186;51.204;6.536;2023-09-19T03:01:21;100565.41;;;13.39;100.00
74659;BME280;63186;51.204;6.536;2023-09-19T03:03:47;100573.25;;;13.37;100.00
74659;BME280;63186;51.204;6.536;2023-09-19T03:06:12;100577.81;;;13.33;100.00
74659;BME280;63186;51.204;6.536;2023-09-19T03:08:38;100572.28;;;13.33;100.00
74659;BME280;63186;51.204;6.536;2023-09-19T03:11:05;100579.75;;;13.33;100.00
74659;BME280;63186;51.204;6.536;2023-09-19T03:13:31;100578.78;;;13.28;100.00
74659;BME280;63186;51.204;6.536;2023-09-19T03:15:57;100574.28;;;13.24;100.00
74659;BME280;63186;51.204;6.536;2023-09-19T03:18:24;100580.94;;;13.23;100.00
74659;BME280;63186;51.204;6.536;2023-09-19T03:20:55;100565.34;;;13.18;100.00
74659;BME280;63186;51.204;6.536;2023-09-19T03:23:20;100569.78;;;13.11;100.00
74659;BME280;63186;51.204;6.536;2023-09-19T03:25:45;100573.19;;;13.08;100.00
74659;BME280;63186;51.204;6.536;2023-09-19T03:28:11;100569.16;;;13.05;100.00
74659;BME280;63186;51.204;6.536;2023-09-19T03:30:37;100573.19;;;13.08;100.00
74659;BME280;63186;51.204;6.536;2023-09-19T03:33:04;100571.91;;;13.05;100.00
74659;BME280;63186;51.204;6.536;2023-09-19T03:35:30;100573.19;;;13.08;100.00
74659;BME280;63186;51.204;6.536;2023-09-19T03:37:55;100575.31;;;13.11;100.00
74659;BME280;63186;51.204;6.536;2023-09-19T03:40:21;100575.31;;;13.11;100.00
74659;BME280;63186;51.204;6.536;2023-09-19T03:42:47;100575.31;;;13.11;100.00
74659;BME280;63186;51.204;6.536;2023-09-19T03:45:13;100576.56;;;13.13;100.00
74659;BME280;63186;51.204;6.536;2023-09-19T03:47:39;100579.00;;;13.15;100.00
74659;BME280;63186;51.204;6.536;2023-09-19T03:50:06;100576.22;;;13.15;100.00
74659;BME280;63186;51.204;6.536;2023-09-19T03:52:36;100577.09;;;13.07;100.00
74659;BME280;63186;51.204;6.536;2023-09-19T03:55:01;100568.16;;;13.01;100.00
74659;BME280;63186;51.204;6.536;2023-09-19T03:57:29;100577.28;;;13.01;100.00
74659;BME280;63186;51.204;6.536;2023-09-19T03:59:55;100570.13;;;13.00;100.00
74659;BME280;63186;51.204;6.536;2023-09-19T04:02:21;100570.47;;;12.99;100.00
74659;BME280;63186;51.204;6.536;2023-09-19T04:04:52;100569.78;;;13.02;100.00
74659;BME280;63186;51.204;6.536;2023-09-19T04:07:18;100572.56;;;13.02;100.00
74659;BME280;63186;51.204;6.536;2023-09-19T04:09:47;100561.03;;;13.00;100.00
74659;BME280;63186;51.204;6.536;2023-09-19T04:12:14;100576.94;;;13.03;100.00
74659;BME280;63186;51.204;6.536;2023-09-19T04:14:42;100571.56;;;13.07;100.00
74659;BME280;63186;51.204;6.536;2023-09-19T04:17:07;100562.81;;;13.04;100.00
74659;BME280;63186;51.204;6.536;2023-09-19T04:19:32;100570.75;;;13.06;100.00
74659;BME280;63186;51.204;6.536;2023-09-19T04:21:57;100573.88;;;13.04;100.00
74659;BME280;63186;51.204;6.536;2023-09-19T04:24:23;100572.72;;;13.06;100.00
74659;BME280;63186;51.204;6.536;2023-09-19T04:26:48;100574.81;;;13.09;100.00
74659;BME280;63186;51.204;6.536;2023-09-19T04:29:13;100570.94;;;13.01;100.00
74659;BME280;63186;51.204;6.536;2023-09-19T04:31:39;100572.72;;;13.06;100.00
74659;BME280;63186;51.204;6.536;2023-09-19T04:34:05;100583.75;;;13.06;100.00
74659;BME280;63186;51.204;6.536;2023-09-19T04:36:31;100575.47;;;13.06;100.00
74659;BME280;63186;51.204;6.536;2023-09-19T04:38:56;100574.66;;;13.05;100.00
74659;BME280;63186;51.204;6.536;2023-09-19T04:41:21;100570.28;;;13.04;100.00
74659;BME280;63186;51.204;6.536;2023-09-19T04:43:47;100576.94;;;13.03;100.00
74659;BME280;63186;51.204;6.536;2023-09-19T04:46:14;100568.81;;;13.07;100.00
74659;BME280;63186;51.204;6.536;2023-09-19T04:48:40;100577.56;;;13.09;100.00
74659;BME280;63186;51.204;6.536;2023-09-19T04:51:06;100584.09;;;13.04;100.00
74659;BME280;63186;51.204;6.536;2023-09-19T04:53:32;100581.66;;;13.02;100.00
74659;BME280;63186;51.204;6.536;2023-09-19T04:55:57;100582.16;;;13.04;100.00
74659;BME280;63186;51.204;6.536;2023-09-19T04:58:23;100582.00;;;13.01;100.00
74659;BME280;63186;51.204;6.536;2023-09-19T05:00:48;100582.31;;;12.99;100.00
74659;BME280;63186;51.204;6.536;2023-09-19T05:03:16;100592.06;;;13.06;100.00
74659;BME280;63186;51.204;6.536;2023-09-19T05:05:42;100592.69;;;13.11;100.00
74659;BME280;63186;51.204;6.536;2023-09-19T05:08:07;100598.00;;;13.16;100.00
74659;BME280;63186;51.204;6.536;2023-09-19T05:10:34;100604.84;;;13.19;100.00
74659;BME280;63186;51.204;6.536;2023-09-19T05:13:03;100606.81;;;13.18;100.00
74659;BME280;63186;51.204;6.536;2023-09-19T05:15:29;100616.72;;;13.19;100.00
74659;BME280;63186;51.204;6.536;2023-09-19T05:17:55;100613.94;;;13.19;100.00
74659;BME280;63186;51.204;6.536;2023-09-19T05:20:20;100626.13;;;13.27;100.00
74659;BME280;63186;51.204;6.536;2023-09-19T05:22:59;100621.22;;;13.33;100.00
74659;BME280;63186;51.204;6.536;2023-09-19T05:25:27;100635.34;;;13.40;100.00
74659;BME280;63186;51.204;6.536;2023-09-19T05:27:56;100631.25;;;13.46;100.00
74659;BME280;63186;51.204;6.536;2023-09-19T05:30:22;100644.09;;;13.50;100.00
74659;BME280;63186;51.204;6.536;2023-09-19T05:32:48;100645.03;;;13.54;100.00
74659;BME280;63186;51.204;6.536;2023-09-19T05:35:13;100653.59;;;13.62;100.00
74659;BME280;63186;51.204;6.536;2023-09-19T05:37:39;100657.00;;;13.67;100.00
74659;BME280;63186;51.204;6.536;2023-09-19T05:40:04;100658.28;;;13.70;100.00
74659;BME280;63186;51.204;6.536;2023-09-19T05:42:37;100658.75;;;13.72;100.00
74659;BME280;63186;51.204;6.536;2023-09-19T05:45:04;100659.38;;;13.77;100.00
74659;BME280;63186;51.204;6.536;2023-09-19T05:47:31;100661.97;;;13.82;100.00
74659;BME280;63186;51.204;6.536;2023-09-19T05:49:56;100668.97;;;13.80;99.17
74659;BME280;63186;51.204;6.536;2023-09-19T05:52:22;100672.19;;;13.82;99.19
74659;BME280;63186;51.204;6.536;2023-09-19T05:54:47;100677.53;;;13.87;100.00
74659;BME280;63186;51.204;6.536;2023-09-19T05:57:12;100688.75;;;13.91;99.53
74659;BME280;63186;51.204;6.536;2023-09-19T05:59:38;100695.22;;;13.95;99.38
74659;BME280;63186;51.204;6.536;2023-09-19T06:02:05;100689.03;;;13.98;100.00
74659;BME280;63186;51.204;6.536;2023-09-19T06:04:31;100688.69;;;13.99;99.02
74659;BME280;63186;51.204;6.536;2023-09-19T06:06:56;100683.63;;;14.01;99.53
74659;BME280;63186;51.204;6.536;2023-09-19T06:09:22;100685.94;;;13.99;100.00
74659;BME280;63186;51.204;6.536;2023-09-19T06:11:48;100677.16;;;13.97;100.00
74659;BME280;63186;51.204;6.536;2023-09-19T06:14:13;100686.28;;;13.98;100.00
74659;BME280;63186;51.204;6.536;2023-09-19T06:16:39;100680.06;;;14.01;99.86
74659;BME280;63186;51.204;6.536;2023-09-19T06:19:06;100681.81;;;14.05;100.00
74659;BME280;63186;51.204;6.536;2023-09-19T06:21:34;100672.88;;;14.08;100.00
74659;BME280;63186;51.204;6.536;2023-09-19T06:23:59;100673.66;;;14.09;100.00
74659;BME280;63186;51.204;6.536;2023-09-19T06:26:24;100677.25;;;14.09;100.00
74659;BME280;63186;51.204;6.536;2023-09-19T06:28:51;100676.09;;;14.10;100.00
74659;BME280;63186;51.204;6.536;2023-09-19T06:31:17;100687.28;;;14.14;100.00
74659;BME280;63186;51.204;6.536;2023-09-19T06:33:42;100679.13;;;14.18;98.99
74659;BME280;63186;51.204;6.536;2023-09-19T06:36:08;100680.09;;;14.22;100.00
74659;BME280;63186;51.204;6.536;2023-09-19T06:38:34;100679.88;;;14.27;99.60
74659;BME280;63186;51.204;6.536;2023-09-19T06:41:02;100684.53;;;14.35;99.49
74659;BME280;63186;51.204;6.536;2023-09-19T06:43:30;100692.31;;;14.42;98.75
74659;BME280;63186;51.204;6.536;2023-09-19T06:45:56;100690.66;;;14.49;98.51
74659;BME280;63186;51.204;6.536;2023-09-19T06:48:22;100684.41;;;14.52;97.07
74659;BME280;63186;51.204;6.536;2023-09-19T06:50:48;100692.66;;;14.61;97.76
74659;BME280;63186;51.204;6.536;2023-09-19T06:53:14;100681.34;;;14.66;96.52
74659;BME280;63186;51.204;6.536;2023-09-19T06:55:39;100687.91;;;14.82;96.66
74659;BME280;63186;51.204;6.536;2023-09-19T06:58:05;100685.22;;;14.86;95.97
74659;BME280;63186;51.204;6.536;2023-09-19T07:00:31;100686.78;;;14.96;94.99
74659;BME280;63186;51.204;6.536;2023-09-19T07:05:29;100693.41;;;15.15;93.47
74659;BME280;63186;51.204;6.536;2023-09-19T07:07:56;100703.59;;;15.24;94.11
74659;BME280;63186;51.204;6.536;2023-09-19T07:10:24;100688.47;;;15.33;91.79
74659;BME280;63186;51.204;6.536;2023-09-19T07:15:28;100703.88;;;15.55;92.23
74659;BME280;63186;51.204;6.536;2023-09-19T07:17:54;100703.44;;;15.78;90.77
74659;BME280;63186;51.204;6.536;2023-09-19T07:20:21;100712.09;;;16.00;89.57
74659;BME280;63186;51.204;6.536;2023-09-19T07:22:47;100718.56;;;16.17;89.20
74659;BME280;63186;51.204;6.536;2023-09-19T07:25:16;100725.22;;;16.40;88.58
74659;BME280;63186;51.204;6.536;2023-09-19T07:27:41;100729.09;;;16.64;87.53
74659;BME280;63186;51.204;6.536;2023-09-19T07:30:07;100721.81;;;16.71;85.79
74659;BME280;63186;51.204;6.536;2023-09-19T07:32:33;100733.50;;;16.77;85.49
74659;BME280;63186;51.204;6.536;2023-09-19T07:34:58;100722.25;;;17.01;85.17
74659;BME280;63186;51.204;6.536;2023-09-19T07:37:24;100724.25;;;17.17;84.29
74659;BME280;63186;51.204;6.536;2023-09-19T07:39:50;100728.34;;;17.35;84.58
74659;BME280;63186;51.204;6.536;2023-09-19T07:42:16;100729.94;;;17.52;83.42
74659;BME280;63186;51.204;6.536;2023-09-19T07:44:43;100721.06;;;17.62;82.02
74659;BME280;63186;51.204;6.536;2023-09-19T07:47:11;100721.88;;;17.94;81.79
74659;BME280;63186;51.204;6.536;2023-09-19T07:49:37;100723.78;;;17.74;80.84
74659;BME280;63186;51.204;6.536;2023-09-19T07:52:02;100722.53;;;17.87;81.08
74659;BME280;63186;51.204;6.536;2023-09-19T07:54:27;100713.91;;;18.12;80.10
74659;BME280;63186;51.204;6.536;2023-09-19T07:56:55;100718.19;;;18.60;78.10
74659;BME280;63186;51.204;6.536;2023-09-19T07:59:21;100730.69;;;18.66;77.05
74659;BME280;63186;51.204;6.536;2023-09-19T08:01:46;100726.47;;;18.57;78.08
74659;BME280;63186;51.204;6.536;2023-09-19T08:04:12;100725.78;;;18.79;77.16
74659;BME280;63186;51.204;6.536;2023-09-19T08:06:38;100733.03;;;18.84;76.94
74659;BME280;63186;51.204;6.536;2023-09-19T08:09:04;100721.94;;;19.07;76.81
74659;BME280;63186;51.204;6.536;2023-09-19T08:11:33;100732.19;;;19.03;74.63
74659;BME280;63186;51.204;6.536;2023-09-19T08:13:58;100727.38;;;19.00;73.16
74659;BME280;63186;51.204;6.536;2023-09-19T08:16:25;100727.63;;;18.72;76.27
74659;BME280;63186;51.204;6.536;2023-09-19T08:18:50;100733.41;;;18.82;74.69
74659;BME280;63186;51.204;6.536;2023-09-19T08:21:23;100728.06;;;19.16;75.10
74659;BME280;63186;51.204;6.536;2023-09-19T08:23:49;100736.44;;;19.16;73.75
74659;BME280;63186;51.204;6.536;2023-09-19T08:26:15;100745.59;;;18.74;73.21
74659;BME280;63186;51.204;6.536;2023-09-19T08:28:40;100744.34;;;18.72;74.86
74659;BME280;63186;51.204;6.536;2023-09-19T08:31:07;100742.91;;;18.62;76.64
74659;BME280;63186;51.204;6.536;2023-09-19T08:33:36;100749.94;;;18.72;77.17
74659;BME280;63186;51.204;6.536;2023-09-19T08:36:02;100758.50;;;18.82;76.75
74659;BME280;63186;51.204;6.536;2023-09-19T08:38:35;100755.91;;;19.12;73.58
74659;BME280;63186;51.204;6.536;2023-09-19T08:41:05;100750.50;;;19.42;71.95
74659;BME280;63186;51.204;6.536;2023-09-19T08:43:31;100752.97;;;19.47;74.06
74659;BME280;63186;51.204;6.536;2023-09-19T08:48:29;100749.03;;;19.06;74.76
74659;BME280;63186;51.204;6.536;2023-09-19T08:53:54;100758.41;;;19.17;72.10
74659;BME280;63186;51.204;6.536;2023-09-19T08:56:24;100759.56;;;19.16;74.33
74659;BME280;63186;51.204;6.536;2023-09-19T08:58:55;100755.53;;;19.14;70.88
74659;BME280;63186;51.204;6.536;2023-09-19T09:01:23;100761.22;;;19.40;72.29
74659;BME280;63186;51.204;6.536;2023-09-19T09:03:56;100744.88;;;19.85;67.90
74659;BME280;63186;51.204;6.536;2023-09-19T09:06:23;100757.19;;;20.59;68.48
74659;BME280;63186;51.204;6.536;2023-09-19T09:08:50;100755.56;;;20.89;65.76
74659;BME280;63186;51.204;6.536;2023-09-19T09:11:16;100761.31;;;20.69;62.93
74659;BME280;63186;51.204;6.536;2023-09-19T09:13:43;100750.88;;;20.10;67.29
74659;BME280;63186;51.204;6.536;2023-09-19T09:16:10;100754.94;;;20.16;70.38
74659;BME280;63186;51.204;6.536;2023-09-19T09:18:35;100754.88;;;20.99;66.85
74659;BME280;63186;51.204;6.536;2023-09-19T09:21:01;100751.34;;;21.05;66.65
74659;BME280;63186;51.204;6.536;2023-09-19T09:23:27;100749.19;;;20.58;66.40
74659;BME280;63186;51.204;6.536;2023-09-19T09:25:55;100757.69;;;20.12;68.80
74659;BME280;63186;51.204;6.536;2023-09-19T09:28:32;100757.03;;;19.50;70.71
74659;BME280;63186;51.204;6.536;2023-09-19T09:30:58;100752.84;;;18.79;70.05
74659;BME280;63186;51.204;6.536;2023-09-19T09:33:24;100744.63;;;18.66;73.03
74659;BME280;63186;51.204;6.536;2023-09-19T09:35:59;100749.47;;;19.50;66.96
74659;BME280;63186;51.204;6.536;2023-09-19T09:38:47;100741.88;;;19.51;65.18
74659;BME280;63186;51.204;6.536;2023-09-19T09:41:16;100745.09;;;20.25;65.66
74659;BME280;63186;51.204;6.536;2023-09-19T09:43:52;100745.28;;;20.40;63.52
74659;BME280;63186;51.204;6.536;2023-09-19T09:46:19;100742.19;;;20.18;65.18
74659;BME280;63186;51.204;6.536;2023-09-19T09:48:56;100736.44;;;19.81;64.82
74659;BME280;63186;51.204;6.536;2023-09-19T09:51:41;100744.03;;;18.96;68.30
74659;BME280;63186;51.204;6.536;2023-09-19T09:54:13;100749.19;;;19.36;67.63
74659;BME280;63186;51.204;6.536;2023-09-19T09:56:56;100754.56;;;20.17;65.83
74659;BME280;63186;51.204;6.536;2023-09-19T09:59:50;100749.47;;;20.23;64.83
74659;BME280;63186;51.204;6.536;2023-09-19T10:02:29;100744.59;;;19.93;62.66
74659;BME280;63186;51.204;6.536;2023-09-19T10:04:58;100753.44;;;19.95;65.16
74659;BME280;63186;51.204;6.536;2023-09-19T10:07:32;100747.63;;;20.08;64.21
74659;BME280;63186;51.204;6.536;2023-09-19T10:10:02;100741.59;;;19.79;66.62
74659;BME280;63186;51.204;6.536;2023-09-19T10:12:47;100735.38;;;19.01;68.22
74659;BME280;63186;51.204;6.536;2023-09-19T10:15:15;100744.69;;;18.70;67.79
74659;BME280;63186;51.204;6.536;2023-09-19T10:17:43;100724.00;;;18.71;69.25
74659;BME280;63186;51.204;6.536;2023-09-19T10:20:16;100719.66;;;18.93;68.23
74659;BME280;63186;51.204;6.536;2023-09-19T10:23:06;100721.25;;;19.36;66.95
74659;BME280;63186;51.204;6.536;2023-09-19T10:25:37;100723.72;;;19.84;66.73
74659;BME280;63186;51.204;6.536;2023-09-19T10:28:05;100721.25;;;20.05;65.94
74659;BME280;63186;51.204;6.536;2023-09-19T10:30:36;100715.13;;;20.22;64.82
74659;BME280;63186;51.204;6.536;2023-09-19T10:33:04;100729.69;;;20.35;65.51
74659;BME280;63186;51.204;6.536;2023-09-19T10:35:32;100728.66;;;20.47;64.93
74659;BME280;63186;51.204;6.536;2023-09-19T10:38:00;100728.31;;;20.52;64.20
74659;BME280;63186;51.204;6.536;2023-09-19T10:40:29;100726.59;;;20.44;65.08
74659;BME280;63186;51.204;6.536;2023-09-19T10:43:04;100724.97;;;20.43;64.92
74659;BME280;63186;51.204;6.536;2023-09-19T10:45:31;100728.16;;;20.15;65.29
74659;BME280;63186;51.204;6.536;2023-09-19T10:47:58;100731.72;;;19.85;65.97
74659;BME280;63186;51.204;6.536;2023-09-19T10:50:23;100721.13;;;19.98;65.49
74659;BME280;63186;51.204;6.536;2023-09-19T10:52:50;100718.38;;;20.01;64.10
74659;BME280;63186;51.204;6.536;2023-09-19T10:55:25;100737.13;;;20.01;65.25
74659;BME280;63186;51.204;6.536;2023-09-19T10:57:53;100718.28;;;20.21;63.92
74659;BME280;63186;51.204;6.536;2023-09-19T11:00:18;100725.13;;;20.23;63.08
74659;BME280;63186;51.204;6.536;2023-09-19T11:05:37;100738.06;;;20.09;64.50
74659;BME280;63186;51.204;6.536;2023-09-19T11:08:06;100722.53;;;20.11;64.29
74659;BME280;63186;51.204;6.536;2023-09-19T11:10:48;100729.34;;;20.14;62.63
74659;BME280;63186;51.204;6.536;2023-09-19T11:13:29;100733.81;;;20.18;62.56
74659;BME280;63186;51.204;6.536;2023-09-19T11:16:03;100739.22;;;20.08;62.91
74659;BME280;63186;51.204;6.536;2023-09-19T11:29:25;100731.59;;;19.78;63.70
74659;BME280;63186;51.204;6.536;2023-09-19T11:31:51;100737.31;;;19.85;63.62
74659;BME280;63186;51.204;6.536;2023-09-19T11:39:39;100721.72;;;20.11;60.49
74659;BME280;63186;51.204;6.536;2023-09-19T11:48:12;100713.72;;;20.09;59.93
74659;BME280;63186;51.204;6.536;2023-09-19T11:50:42;100716.88;;;20.08;61.03
74659;BME280;63186;51.204;6.536;2023-09-19T11:53:10;100722.69;;;20.22;61.89
74659;BME280;63186;51.204;6.536;2023-09-19T11:55:40;100715.84;;;20.19;60.24
74659;BME280;63186;51.204;6.536;2023-09-19T11:58:09;100715.03;;;20.15;61.47
74659;BME280;63186;51.204;6.536;2023-09-19T12:00:37;100716.06;;;20.33;60.85
74659;BME280;63186;51.204;6.536;2023-09-19T12:03:08;100709.47;;;20.45;59.72
74659;BME280;63186;51.204;6.536;2023-09-19T12:05:35;100698.44;;;20.29;60.78
74659;BME280;63186;51.204;6.536;2023-09-19T12:08:02;100696.75;;;20.21;60.34
74659;BME280;63186;51.204;6.536;2023-09-19T12:10:28;100691.47;;;20.16;60.96
74659;BME280;63186;51.204;6.536;2023-09-19T12:12:53;100713.25;;;20.33;61.19
74659;BME280;63186;51.204;6.536;2023-09-19T12:15:25;100711.38;;;20.15;59.52
74659;BME280;63186;51.204;6.536;2023-09-19T12:17:54;100701.78;;;20.12;60.88
74659;BME280;63186;51.204;6.536;2023-09-19T12:20:19;100705.75;;;20.11;60.26
74659;BME280;63186;51.204;6.536;2023-09-19T12:22:46;100693.69;;;20.03;60.22
74659;BME280;63186;51.204;6.536;2023-09-19T12:25:15;100694.63;;;20.15;59.77
74659;BME280;63186;51.204;6.536;2023-09-19T12:27:47;100700.22;;;20.15;59.53
74659;BME280;63186;51.204;6.536;2023-09-19T12:30:13;100676.72;;;20.19;59.62
74659;BME280;63186;51.204;6.536;2023-09-19T12:32:40;100671.31;;;20.03;57.99
74659;BME280;63186;51.204;6.536;2023-09-19T12:35:08;100668.84;;;19.98;59.75
74659;BME280;63186;51.204;6.536;2023-09-19T12:37:45;100665.78;;;20.07;60.11
74659;BME280;63186;51.204;6.536;2023-09-19T12:40:13;100663.84;;;20.11;59.63
74659;BME280;63186;51.204;6.536;2023-09-19T12:42:48;100664.97;;;20.06;59.80
74659;BME280;63186;51.204;6.536;2023-09-19T12:45:14;100654.56;;;20.03;59.37
74659;BME280;63186;51.204;6.536;2023-09-19T12:53:57;100657.69;;;19.98;58.52
74659;BME280;63186;51.204;6.536;2023-09-19T12:56:22;100645.59;;;19.91;59.44
74659;BME280;63186;51.204;6.536;2023-09-19T12:58:58;100654.81;;;19.95;57.38
74659;BME280;63186;51.204;6.536;2023-09-19T13:01:28;100658.44;;;19.95;59.02
74659;BME280;63186;51.204;6.536;2023-09-19T13:04:17;100647.22;;;19.92;59.33
74659;BME280;63186;51.204;6.536;2023-09-19T13:06:46;100663.03;;;20.11;58.77
74659;BME280;63186;51.204;6.536;2023-09-19T13:09:14;100662.25;;;20.10;59.42
74659;BME280;63186;51.204;6.536;2023-09-19T13:11:41;100663.88;;;20.15;59.40
74659;BME280;63186;51.204;6.536;2023-09-19T13:14:37;100659.88;;;20.42;59.21
74659;BME280;63186;51.204;6.536;2023-09-19T13:17:08;100649.81;;;20.38;58.86
74659;BME280;63186;51.204;6.536;2023-09-19T13:19:51;100661.06;;;20.41;58.05
74659;BME280;63186;51.204;6.536;2023-09-19T13:22:44;100664.34;;;20.47;57.94
74659;BME280;63186;51.204;6.536;2023-09-19T13:25:19;100660.94;;;20.34;59.22
74659;BME280;63186;51.204;6.536;2023-09-19T13:27:52;100663.19;;;20.21;58.26
74659;BME280;63186;51.204;6.536;2023-09-19T13:30:20;100669.06;;;20.13;59.77
74659;BME280;63186;51.204;6.536;2023-09-19T13:32:46;100660.66;;;20.13;59.58
74659;BME280;63186;51.204;6.536;2023-09-19T13:35:12;100664.25;;;20.13;60.45
74659;BME280;63186;51.204;6.536;2023-09-19T13:37:39;100669.06;;;20.13;60.27
74659;BME280;63186;51.204;6.536;2023-09-19T13:40:12;100669.88;;;19.87;60.92
74659;BME280;63186;51.204;6.536;2023-09-19T13:42:38;100668.91;;;19.75;59.96
74659;BME280;63186;51.204;6.536;2023-09-19T13:45:05;100665.53;;;19.63;60.55
74659;BME280;63186;51.204;6.536;2023-09-19T13:47:31;100666.53;;;19.55;61.61
74659;BME280;63186;51.204;6.536;2023-09-19T13:49:58;100667.88;;;19.61;61.56